createdAt,value
2023-03-29T00:00:13.109Z,1.20
2023-03-29T00:02:41.860Z,0.90
2023-03-29T00:05:10.514Z,0.93
2023-03-29T00:07:38.219Z,0.90
2023-03-29T00:10:06.544Z,0.98
2023-03-29T00:12:34.107Z,0.93
2023-03-29T00:15:02.009Z,0.90
2023-03-29T00:17:30.649Z,1.00
2023-03-29T00:19:58.181Z,1.02
2023-03-29T00:22:26.150Z,0.90
2023-03-29T00:24:54.267Z,0.95
2023-03-29T00:27:22.136Z,0.90
2023-03-29T00:29:49.666Z,1.00
2023-03-29T00:32:17.541Z,1.12
2023-03-29T00:34:45.891Z,1.00
2023-03-29T00:37:14.898Z,1.37
2023-03-29T00:39:44.000Z,1.07
2023-03-29T00:42:16.832Z,0.88
2023-03-29T00:44:58.399Z,1.00
2023-03-29T00:47:30.233Z,1.05
2023-03-29T00:50:14.355Z,1.00
2023-03-29T00:52:46.352Z,1.00
2023-03-29T00:55:20.144Z,1.20
2023-03-29T00:57:49.257Z,1.00
2023-03-29T01:00:20.909Z,1.20
2023-03-29T01:02:54.245Z,0.90
2023-03-29T01:05:29.552Z,1.17
2023-03-29T01:08:06.746Z,0.75
2023-03-29T01:10:43.645Z,0.98
2023-03-29T01:13:19.573Z,1.00
2023-03-29T01:15:48.013Z,0.90
2023-03-29T01:18:16.601Z,1.00
2023-03-29T01:21:03.268Z,0.95
2023-03-29T01:23:51.864Z,0.90
2023-03-29T01:26:47.131Z,0.90
2023-03-29T01:29:20.718Z,1.25
2023-03-29T01:31:54.876Z,0.97
2023-03-29T01:34:22.635Z,1.23
2023-03-29T01:36:58.847Z,1.08
2023-03-29T01:39:27.552Z,1.23
2023-03-29T01:42:26.520Z,1.17
2023-03-29T01:45:18.462Z,0.87
2023-03-29T01:48:14.150Z,0.98
2023-03-29T01:50:50.965Z,1.05
2023-03-29T01:53:36.121Z,1.10
2023-03-29T01:56:12.481Z,1.10
2023-03-29T01:58:44.749Z,1.17
2023-03-29T02:01:17.777Z,1.27
2023-03-29T02:03:49.935Z,1.10
2023-03-29T02:06:20.933Z,1.23
2023-03-29T02:08:49.770Z,1.30
2023-03-29T02:11:17.872Z,1.50
2023-03-29T02:13:45.699Z,1.00
2023-03-29T02:16:15.021Z,1.17
2023-03-29T02:18:44.629Z,1.60
2023-03-29T02:21:23.062Z,1.30
2023-03-29T02:23:54.334Z,1.17
2023-03-29T02:26:22.620Z,1.23
2023-03-29T02:28:51.789Z,0.93
2023-03-29T02:31:29.457Z,1.20
2023-03-29T02:34:07.771Z,1.15
2023-03-29T02:36:44.682Z,1.10
2023-03-29T02:39:15.716Z,1.10
2023-03-29T02:41:49.122Z,1.00
2023-03-29T02:44:19.627Z,1.10
2023-03-29T02:46:54.077Z,1.10
2023-03-29T02:49:22.311Z,1.47
2023-03-29T02:51:53.670Z,1.33
2023-03-29T02:54:25.983Z,1.15
2023-03-29T02:56:59.009Z,1.00
2023-03-29T02:59:27.487Z,1.30
2023-03-29T03:01:55.605Z,1.20
2023-03-29T03:04:23.546Z,1.30
2023-03-29T03:06:51.167Z,1.15
2023-03-29T03:09:19.735Z,1.08
2023-03-29T03:11:47.490Z,1.30
2023-03-29T03:14:16.681Z,1.00
2023-03-29T03:16:44.772Z,0.82
2023-03-29T03:19:12.502Z,1.30
2023-03-29T03:21:40.180Z,1.20
2023-03-29T03:24:08.033Z,1.27
2023-03-29T03:26:36.052Z,1.10
2023-03-29T03:29:05.215Z,2.80
2023-03-29T03:31:34.710Z,2.97
2023-03-29T03:34:04.260Z,3.03
2023-03-29T03:36:34.656Z,3.70
2023-03-29T03:39:05.854Z,3.03
2023-03-29T03:41:34.478Z,3.15
2023-03-29T03:44:02.684Z,2.37
2023-03-29T03:46:31.517Z,2.37
2023-03-29T03:48:59.989Z,2.47
2023-03-29T03:51:27.987Z,1.97
2023-03-29T03:53:55.847Z,1.70
2023-03-29T03:56:25.885Z,1.65
2023-03-29T03:58:55.071Z,1.37
2023-03-29T04:01:24.046Z,1.23
2023-03-29T04:03:52.433Z,1.53
2023-03-29T04:06:20.118Z,1.20
2023-03-29T04:08:49.418Z,1.10
2023-03-29T04:11:17.775Z,1.80
2023-03-29T04:13:46.369Z,1.77
2023-03-29T04:16:14.471Z,1.20
2023-03-29T04:18:42.724Z,1.25
2023-03-29T04:21:10.537Z,0.98
2023-03-29T04:23:38.387Z,1.12
2023-03-29T04:26:06.541Z,0.80
2023-03-29T04:28:35.031Z,0.90
2023-03-29T04:31:03.033Z,1.45
2023-03-29T04:33:31.449Z,2.70
2023-03-29T04:35:59.754Z,2.50
2023-03-29T04:38:27.404Z,2.33
2023-03-29T04:40:55.487Z,2.53
2023-03-29T04:43:23.740Z,2.03
2023-03-29T04:45:53.438Z,2.30
2023-03-29T04:48:24.390Z,1.40
2023-03-29T04:50:54.143Z,1.40
2023-03-29T04:53:22.330Z,1.60
2023-03-29T04:55:50.475Z,1.87
2023-03-29T04:58:21.596Z,1.70
2023-03-29T05:00:51.657Z,1.70
2023-03-29T05:03:21.093Z,1.65
2023-03-29T05:05:49.261Z,1.63
2023-03-29T05:08:17.278Z,1.87
2023-03-29T05:10:46.367Z,1.67
2023-03-29T05:13:14.479Z,1.77
2023-03-29T05:15:42.783Z,1.67
2023-03-29T05:18:10.688Z,1.93
2023-03-29T05:20:38.543Z,1.85
2023-03-29T05:23:06.671Z,1.50
2023-03-29T05:25:37.113Z,1.30
2023-03-29T05:28:04.936Z,1.87
2023-03-29T05:30:33.264Z,1.80
2023-03-29T05:33:05.596Z,1.87
2023-03-29T05:35:36.018Z,1.70
2023-03-29T05:38:05.194Z,1.60
2023-03-29T05:40:33.880Z,1.67
2023-03-29T05:43:03.881Z,1.70
2023-03-29T05:45:33.916Z,1.85
2023-03-29T05:48:03.925Z,2.08
2023-03-29T05:50:32.009Z,2.08
2023-03-29T05:53:00.108Z,2.58
2023-03-29T05:55:28.517Z,1.80
2023-03-29T05:57:56.593Z,1.75
2023-03-29T06:00:24.554Z,1.62
2023-03-29T06:02:53.808Z,1.67
2023-03-29T06:05:21.955Z,1.75
2023-03-29T06:07:50.044Z,1.43
2023-03-29T06:10:23.538Z,1.80
2023-03-29T06:12:52.595Z,1.80
2023-03-29T06:15:21.593Z,1.73
2023-03-29T06:17:49.553Z,1.67
2023-03-29T06:20:17.386Z,1.90
2023-03-29T06:22:47.741Z,1.60
2023-03-29T06:25:15.635Z,1.70
2023-03-29T06:27:43.506Z,3.35
2023-03-29T06:30:12.182Z,3.03
2023-03-29T06:32:39.758Z,2.10
2023-03-29T06:35:08.246Z,1.65
2023-03-29T06:37:36.414Z,2.40
2023-03-29T06:40:06.951Z,1.70
2023-03-29T06:42:35.736Z,1.80
2023-03-29T06:45:07.514Z,1.80
2023-03-29T06:47:37.234Z,1.73
2023-03-29T06:50:05.900Z,1.55
2023-03-29T06:52:35.064Z,1.42
2023-03-29T06:55:03.134Z,1.23
2023-03-29T06:57:30.970Z,1.10
2023-03-29T06:59:58.794Z,1.50
2023-03-29T07:02:26.841Z,1.65
2023-03-29T07:04:56.182Z,1.50
2023-03-29T07:07:27.607Z,1.50
2023-03-29T07:09:55.999Z,2.10
2023-03-29T07:12:24.493Z,1.95
2023-03-29T07:14:52.865Z,3.03
2023-03-29T07:17:21.407Z,4.18
2023-03-29T07:19:49.308Z,4.22
2023-03-29T07:22:19.744Z,3.90
2023-03-29T07:24:49.356Z,4.28
2023-03-29T07:27:18.099Z,3.90
2023-03-29T07:29:50.035Z,3.30
2023-03-29T07:32:17.940Z,3.50
2023-03-29T07:34:48.385Z,3.67
2023-03-29T07:37:17.217Z,2.60
2023-03-29T07:39:45.883Z,2.72
2023-03-29T07:42:13.717Z,3.03
2023-03-29T07:44:41.910Z,3.67
2023-03-29T07:47:09.678Z,2.97
2023-03-29T07:49:37.927Z,3.30
2023-03-29T07:52:07.074Z,2.83
2023-03-29T07:54:34.836Z,2.85
2023-03-29T07:57:02.620Z,2.60
2023-03-29T07:59:30.957Z,3.47
2023-03-29T08:01:59.297Z,3.17
2023-03-29T08:04:28.623Z,3.62
2023-03-29T08:07:07.935Z,3.55
2023-03-29T08:09:37.512Z,3.05
2023-03-29T08:12:05.537Z,3.10
2023-03-29T08:14:34.150Z,2.78
2023-03-29T08:17:02.545Z,3.10
2023-03-29T08:19:31.602Z,3.35
2023-03-29T08:22:00.676Z,3.90
2023-03-29T08:24:28.977Z,2.30
2023-03-29T08:26:56.842Z,2.50
2023-03-29T08:29:25.273Z,2.28
2023-03-29T08:31:53.124Z,2.72
2023-03-29T08:34:21.340Z,2.47
2023-03-29T08:36:49.125Z,2.17
2023-03-29T08:39:19.464Z,1.90
2023-03-29T08:41:58.255Z,2.30
2023-03-29T08:44:44.628Z,4.03
2023-03-29T08:47:25.883Z,2.15
2023-03-29T08:49:56.412Z,1.70
2023-03-29T08:52:52.894Z,1.50
2023-03-29T08:55:33.384Z,1.45
2023-03-29T08:58:03.184Z,1.37
2023-03-29T09:00:37.687Z,1.52
2023-03-29T09:03:24.711Z,1.40
2023-03-29T09:06:14.555Z,1.42
2023-03-29T09:08:50.033Z,1.52
2023-03-29T09:11:35.570Z,1.10
2023-03-29T09:14:24.615Z,1.37
2023-03-29T09:16:58.746Z,0.90
2023-03-29T09:19:51.210Z,1.20
2023-03-29T09:22:30.489Z,1.00
2023-03-29T09:25:03.933Z,1.35
2023-03-29T09:27:39.073Z,1.05
2023-03-29T09:30:14.637Z,1.50
2023-03-29T09:32:53.854Z,1.55
2023-03-29T09:35:26.119Z,1.25
2023-03-29T09:37:55.032Z,1.00
2023-03-29T09:40:41.535Z,1.55
2023-03-29T09:43:12.922Z,1.83
2023-03-29T09:45:41.472Z,1.30
2023-03-29T09:48:17.570Z,1.83
2023-03-29T09:50:51.417Z,1.60
2023-03-29T09:53:20.853Z,1.52
2023-03-29T09:55:50.624Z,1.67
2023-03-29T09:58:24.044Z,1.87
2023-03-29T10:00:53.169Z,1.60
2023-03-29T10:03:28.507Z,1.52
2023-03-29T10:05:59.797Z,1.15
2023-03-29T10:08:30.233Z,1.20
2023-03-29T10:10:59.036Z,1.20
2023-03-29T10:13:33.060Z,1.30
2023-03-29T10:16:18.940Z,1.12
2023-03-29T10:18:47.417Z,1.60
2023-03-29T10:21:16.865Z,1.50
2023-03-29T10:23:44.417Z,1.55
2023-03-29T10:26:25.190Z,1.60
2023-03-29T10:28:57.248Z,1.48
2023-03-29T10:31:25.834Z,1.70
2023-03-29T10:33:56.706Z,1.50
2023-03-29T10:36:26.466Z,1.83
2023-03-29T10:38:57.862Z,1.58
2023-03-29T10:41:27.279Z,1.70
2023-03-29T10:43:55.532Z,1.75
2023-03-29T10:46:28.152Z,1.60
2023-03-29T10:48:58.074Z,1.80
2023-03-29T10:51:30.022Z,1.50
2023-03-29T10:53:59.108Z,1.40
2023-03-29T10:56:32.522Z,1.60
2023-03-29T10:59:16.241Z,1.70
2023-03-29T11:02:04.013Z,1.67
2023-03-29T11:05:00.993Z,1.55
2023-03-29T11:07:35.728Z,1.60
2023-03-29T11:10:32.590Z,1.42
2023-03-29T11:13:09.005Z,1.60
2023-03-29T11:15:42.731Z,1.83
2023-03-29T11:18:27.751Z,1.60
2023-03-29T11:21:22.092Z,1.50
2023-03-29T11:24:14.008Z,1.52
2023-03-29T11:26:56.406Z,1.80
2023-03-29T11:29:44.614Z,1.33
2023-03-29T11:32:29.604Z,1.15
2023-03-29T11:35:42.828Z,1.55
2023-03-29T11:38:20.488Z,1.65
2023-03-29T11:41:18.789Z,1.60
2023-03-29T11:43:54.230Z,1.23
2023-03-29T11:46:28.578Z,1.60
2023-03-29T11:49:05.757Z,1.25
2023-03-29T11:51:44.262Z,2.00
2023-03-29T11:54:18.507Z,3.20
2023-03-29T11:56:53.213Z,1.60
2023-03-29T11:59:38.005Z,1.35
2023-03-29T12:02:32.220Z,2.25
2023-03-29T12:05:05.274Z,1.67
2023-03-29T12:07:36.812Z,1.47
2023-03-29T12:10:20.325Z,1.52
2023-03-29T12:13:07.042Z,1.73
2023-03-29T12:15:46.819Z,2.10
2023-03-29T12:18:21.594Z,1.33
2023-03-29T12:20:54.819Z,1.73
2023-03-29T12:23:23.227Z,1.83
2023-03-29T12:26:12.267Z,2.20
2023-03-29T12:29:17.285Z,1.55
2023-03-29T12:31:54.408Z,1.77
2023-03-29T12:34:47.370Z,2.03
2023-03-29T12:37:37.275Z,1.77
2023-03-29T12:40:17.904Z,2.45
2023-03-29T12:42:57.924Z,2.08
2023-03-29T12:45:39.035Z,1.58
2023-03-29T12:48:07.841Z,1.70
2023-03-29T12:51:04.867Z,2.08
2023-03-29T12:53:38.579Z,2.50
2023-03-29T12:56:08.603Z,2.58
2023-03-29T12:58:59.372Z,2.40
2023-03-29T13:01:36.976Z,2.40
2023-03-29T13:04:18.416Z,2.08
2023-03-29T13:06:49.731Z,1.92
2023-03-29T13:09:21.538Z,1.73
2023-03-29T13:11:53.767Z,1.62
2023-03-29T13:14:25.526Z,1.80
2023-03-29T13:16:53.730Z,1.87
2023-03-29T13:19:43.737Z,1.92
2023-03-29T13:22:53.946Z,2.17
2023-03-29T13:25:41.298Z,1.90
2023-03-29T13:28:22.390Z,1.90
2023-03-29T13:30:58.464Z,3.50
2023-03-29T13:33:47.881Z,2.40
2023-03-29T13:36:33.913Z,1.92
2023-03-29T13:39:05.426Z,1.83
2023-03-29T13:41:46.919Z,2.27
2023-03-29T13:44:23.674Z,2.75
2023-03-29T13:47:10.867Z,1.37
2023-03-29T13:49:39.218Z,1.85
2023-03-29T13:52:52.592Z,1.40
2023-03-29T13:55:28.985Z,2.43
2023-03-29T13:58:27.433Z,2.17
2023-03-29T14:01:17.727Z,2.62
2023-03-29T14:03:48.454Z,2.03
2023-03-29T14:06:21.182Z,2.70
2023-03-29T14:08:50.028Z,2.20
2023-03-29T14:11:38.177Z,2.30
2023-03-29T14:14:08.204Z,1.80
2023-03-29T14:16:38.287Z,3.20
2023-03-29T14:19:17.695Z,2.70
2023-03-29T14:21:45.804Z,2.17
2023-03-29T14:24:19.934Z,2.47
2023-03-29T14:26:47.834Z,1.92
2023-03-29T14:29:16.196Z,2.80
2023-03-29T14:31:44.350Z,3.00
2023-03-29T14:34:18.651Z,2.70
2023-03-29T14:36:48.991Z,2.37
2023-03-29T14:39:23.463Z,2.17
2023-03-29T14:41:53.847Z,3.08
2023-03-29T14:44:23.811Z,3.62
2023-03-29T14:46:51.829Z,4.07
2023-03-29T14:49:21.150Z,2.67
2023-03-29T14:51:49.655Z,3.62
2023-03-29T14:54:21.159Z,2.40
2023-03-29T14:56:50.545Z,2.25
2023-03-29T14:59:39.799Z,2.13
2023-03-29T15:02:26.872Z,2.05
2023-03-29T15:05:05.809Z,3.75
2023-03-29T15:07:35.376Z,3.30
2023-03-29T15:10:06.465Z,3.20
2023-03-29T15:12:34.558Z,2.50
2023-03-29T15:15:02.708Z,2.20
2023-03-29T15:17:49.540Z,2.00
2023-03-29T15:20:26.163Z,3.53
2023-03-29T15:22:55.524Z,1.80
2023-03-29T15:25:23.318Z,2.87
2023-03-29T15:27:55.516Z,2.42
2023-03-29T15:30:33.205Z,2.55
2023-03-29T15:33:20.525Z,2.45
2023-03-29T15:35:53.167Z,7.55
2023-03-29T15:38:27.476Z,4.73
2023-03-29T15:40:58.941Z,2.90
2023-03-29T15:43:26.920Z,6.57
2023-03-29T15:45:54.740Z,5.47
2023-03-29T15:48:25.169Z,4.25
2023-03-29T15:50:53.667Z,3.47
2023-03-29T15:53:23.495Z,2.90
2023-03-29T15:55:53.517Z,2.20
2023-03-29T15:58:31.742Z,1.60
2023-03-29T16:01:19.268Z,2.37
2023-03-29T16:03:48.166Z,2.37
2023-03-29T16:06:17.676Z,3.42
2023-03-29T16:08:46.071Z,2.65
2023-03-29T16:11:14.065Z,1.80
2023-03-29T16:13:41.663Z,1.83
2023-03-29T16:16:10.772Z,2.00
2023-03-29T16:18:38.745Z,2.37
2023-03-29T16:21:06.794Z,2.30
2023-03-29T16:23:34.423Z,2.08
2023-03-29T16:26:02.482Z,1.92
2023-03-29T16:28:30.486Z,2.23
2023-03-29T16:30:58.073Z,2.42
2023-03-29T16:33:26.991Z,3.42
2023-03-29T16:35:54.681Z,2.87
2023-03-29T16:38:24.346Z,2.55
2023-03-29T16:40:52.623Z,2.73
2023-03-29T16:43:20.495Z,2.30
2023-03-29T16:45:48.112Z,2.40
2023-03-29T16:48:18.067Z,2.00
2023-03-29T16:50:49.949Z,1.65
2023-03-29T16:53:21.709Z,1.30
2023-03-29T16:55:49.524Z,1.52
2023-03-29T16:58:17.589Z,1.75
2023-03-29T17:00:48.299Z,1.85
2023-03-29T17:03:16.891Z,2.08
2023-03-29T17:05:50.273Z,2.00
2023-03-29T17:08:21.253Z,1.25
2023-03-29T17:10:54.017Z,1.30
2023-03-29T17:13:23.911Z,1.08
2023-03-29T17:15:56.350Z,1.73
2023-03-29T17:18:26.109Z,1.70
2023-03-29T17:20:58.228Z,1.75
2023-03-29T17:23:25.922Z,1.40
2023-03-29T17:25:55.850Z,1.10
2023-03-29T17:28:24.005Z,1.00
2023-03-29T17:30:52.195Z,1.93
2023-03-29T17:33:26.073Z,5.50
2023-03-29T17:35:53.844Z,3.47
2023-03-29T17:38:21.780Z,3.55
2023-03-29T17:40:55.778Z,2.70
2023-03-29T17:43:23.588Z,2.83
2023-03-29T17:45:52.375Z,2.92
2023-03-29T17:48:20.475Z,2.60
2023-03-29T17:50:48.412Z,3.80
2023-03-29T17:53:16.052Z,3.47
2023-03-29T17:55:43.605Z,3.53
2023-03-29T17:58:11.796Z,3.37
2023-03-29T18:00:39.410Z,3.12
2023-03-29T18:03:07.728Z,4.00
2023-03-29T18:05:36.115Z,3.47
2023-03-29T18:08:04.018Z,3.47
2023-03-29T18:10:32.475Z,3.12
2023-03-29T18:13:00.638Z,3.40
2023-03-29T18:15:28.257Z,2.80
2023-03-29T18:17:56.147Z,2.60
2023-03-29T18:20:23.786Z,2.10
2023-03-29T18:22:51.365Z,2.45
2023-03-29T18:25:20.073Z,2.08
2023-03-29T18:27:47.647Z,1.95
2023-03-29T18:30:16.779Z,2.45
2023-03-29T18:32:44.853Z,1.60
2023-03-29T18:35:12.427Z,1.92
2023-03-29T18:37:39.977Z,1.83
2023-03-29T18:40:08.929Z,2.20
2023-03-29T18:42:36.720Z,2.03
2023-03-29T18:45:04.971Z,2.20
2023-03-29T18:47:33.165Z,1.90
2023-03-29T18:50:02.468Z,1.95
2023-03-29T18:52:30.673Z,1.85
2023-03-29T18:54:58.961Z,1.80
2023-03-29T18:57:26.645Z,1.80
2023-03-29T18:59:54.279Z,1.92
2023-03-29T19:02:22.451Z,1.62
2023-03-29T19:04:50.102Z,1.65
2023-03-29T19:07:17.770Z,2.00
2023-03-29T19:09:46.056Z,1.83
2023-03-29T19:12:13.536Z,2.12
2023-03-29T19:14:41.365Z,2.37
2023-03-29T19:17:09.180Z,1.90
2023-03-29T19:19:37.830Z,1.90
2023-03-29T19:22:05.422Z,2.27
2023-03-29T19:24:33.503Z,2.12
2023-03-29T19:27:01.792Z,2.30
2023-03-29T19:29:29.319Z,2.00
2023-03-29T19:31:57.171Z,2.22
2023-03-29T19:34:25.026Z,2.00
2023-03-29T19:36:55.060Z,2.05
2023-03-29T19:39:22.936Z,2.00
2023-03-29T19:41:50.835Z,2.05
2023-03-29T19:44:20.051Z,2.62
2023-03-29T19:46:47.948Z,1.87
2023-03-29T19:49:15.588Z,1.87
2023-03-29T19:51:43.489Z,1.90
2023-03-29T19:54:14.482Z,2.20
2023-03-29T19:56:42.938Z,2.08
2023-03-29T19:59:15.029Z,2.27
2023-03-29T20:01:44.000Z,1.50
2023-03-29T20:04:12.029Z,2.00
2023-03-29T20:06:39.563Z,1.73
2023-03-29T20:09:07.668Z,2.08
2023-03-29T20:11:35.583Z,1.90
2023-03-29T20:14:04.307Z,2.37
2023-03-29T20:16:34.878Z,1.73
2023-03-29T20:19:04.229Z,1.42
2023-03-29T20:21:33.633Z,1.48
2023-03-29T20:24:01.540Z,1.60
2023-03-29T20:26:29.646Z,1.50
2023-03-29T20:28:57.262Z,1.60
2023-03-29T20:31:25.008Z,1.65
2023-03-29T20:33:52.994Z,1.40
2023-03-29T20:36:23.125Z,1.97
2023-03-29T20:38:51.400Z,1.80
2023-03-29T20:41:22.900Z,1.65
2023-03-29T20:43:58.191Z,1.92
2023-03-29T20:46:33.858Z,1.58
2023-03-29T20:49:02.954Z,1.67
2023-03-29T20:51:32.044Z,1.77
2023-03-29T20:54:04.917Z,1.80
2023-03-29T20:56:38.960Z,1.87
2023-03-29T20:59:10.873Z,1.60
2023-03-29T21:01:40.760Z,1.57
2023-03-29T21:04:10.895Z,1.75
2023-03-29T21:06:41.628Z,1.87
2023-03-29T21:09:09.180Z,1.40
2023-03-29T21:11:36.740Z,1.50
2023-03-29T21:14:04.613Z,1.20
2023-03-29T21:16:32.091Z,1.62
2023-03-29T21:18:59.531Z,1.25
2023-03-29T21:21:29.622Z,1.25
2023-03-29T21:23:57.162Z,1.12
2023-03-29T21:26:24.739Z,1.10
2023-03-29T21:28:52.731Z,1.00
2023-03-29T21:31:20.535Z,0.85
2023-03-29T21:33:48.070Z,0.80
2023-03-29T21:36:15.833Z,0.90
2023-03-29T21:38:43.350Z,0.83
2023-03-29T21:41:12.377Z,0.85
2023-03-29T21:43:40.474Z,0.93
2023-03-29T21:46:08.136Z,0.80
2023-03-29T21:48:36.135Z,0.60
2023-03-29T21:51:05.353Z,1.00
2023-03-29T21:53:33.423Z,0.90
2023-03-29T21:56:01.158Z,0.95
2023-03-29T21:58:29.015Z,0.70
2023-03-29T22:00:57.127Z,0.82
2023-03-29T22:03:25.103Z,1.10
2023-03-29T22:06:01.177Z,0.80
2023-03-29T22:08:30.783Z,0.82
2023-03-29T22:10:58.563Z,0.80
2023-03-29T22:13:28.378Z,0.70
2023-03-29T22:16:01.006Z,0.80
2023-03-29T22:18:30.254Z,1.00
2023-03-29T22:20:58.180Z,0.80
2023-03-29T22:23:25.885Z,0.70
2023-03-29T22:25:53.398Z,0.75
2023-03-29T22:28:21.266Z,0.80
2023-03-29T22:30:48.923Z,0.70
2023-03-29T22:33:17.115Z,0.80
2023-03-29T22:35:45.065Z,0.70
2023-03-29T22:38:12.605Z,1.10
2023-03-29T22:40:40.804Z,1.17
2023-03-29T22:43:08.687Z,0.85
2023-03-29T22:45:36.369Z,1.05
2023-03-29T22:48:04.369Z,0.95
2023-03-29T22:50:32.603Z,1.00
2023-03-29T22:53:00.106Z,1.20
2023-03-29T22:55:27.651Z,1.17
2023-03-29T22:57:55.545Z,1.10
2023-03-29T23:00:23.147Z,1.20
2023-03-29T23:02:51.289Z,1.05
2023-03-29T23:05:19.147Z,1.20
2023-03-29T23:07:46.636Z,1.10
2023-03-29T23:10:14.108Z,1.23
2023-03-29T23:12:43.181Z,1.12
2023-03-29T23:15:11.433Z,1.25
2023-03-29T23:17:38.941Z,0.90
2023-03-29T23:20:08.257Z,1.20
2023-03-29T23:22:36.386Z,1.00
2023-03-29T23:25:04.171Z,0.93
2023-03-29T23:27:32.775Z,1.10
2023-03-29T23:30:01.602Z,1.57
2023-03-29T23:32:29.276Z,1.42
2023-03-29T23:34:57.137Z,1.30
2023-03-29T23:37:24.978Z,1.42
2023-03-29T23:39:52.488Z,1.65
2023-03-29T23:42:21.099Z,1.80
2023-03-29T23:44:48.675Z,1.60
2023-03-29T23:47:16.691Z,2.00
2023-03-29T23:49:45.329Z,1.60
2023-03-29T23:52:13.188Z,1.70
2023-03-29T23:54:40.672Z,1.80
2023-03-29T23:57:08.568Z,2.00
2023-03-29T23:59:37.957Z,1.80
